createdAt,value
2022-08-11T00:01:23.298Z,23.29
2022-08-11T00:04:16.526Z,23.27
2022-08-11T00:06:46.528Z,23.25
2022-08-11T00:09:18.488Z,23.20
2022-08-11T00:11:54.016Z,23.16
2022-08-11T00:14:36.904Z,23.13
2022-08-11T00:17:08.438Z,23.13
2022-08-11T00:20:14.427Z,23.08
2022-08-11T00:22:27.326Z,23.05
2022-08-11T00:24:58.600Z,23.02
2022-08-11T00:27:35.266Z,23.00
2022-08-11T00:30:03.111Z,22.93
2022-08-11T00:32:30.628Z,22.88
2022-08-11T00:35:51.125Z,22.83
2022-08-11T00:37:49.820Z,22.75
2022-08-11T00:40:37.843Z,22.66
2022-08-11T00:43:22.354Z,22.59
2022-08-11T00:46:08.795Z,22.51
2022-08-11T00:49:11.959Z,22.45
2022-08-11T00:52:04.013Z,22.33
2022-08-11T00:54:50.355Z,22.30
2022-08-11T00:57:51.992Z,22.23
2022-08-11T01:00:23.919Z,22.14
2022-08-11T01:03:24.527Z,22.10
2022-08-11T01:06:14.083Z,22.03
2022-08-11T01:09:01.968Z,21.99
2022-08-11T01:11:56.608Z,21.89
2022-08-11T01:14:34.374Z,21.84
2022-08-11T01:17:46.133Z,21.76
2022-08-11T01:20:46.967Z,21.71
2022-08-11T01:23:41.542Z,21.67
2022-08-11T01:26:38.945Z,21.59
2022-08-11T01:29:27.326Z,21.58
2022-08-11T01:32:18.699Z,21.56
2022-08-11T01:35:03.863Z,21.53
2022-08-11T01:38:05.754Z,21.46
2022-08-11T01:41:02.942Z,21.44
2022-08-11T01:44:12.724Z,21.41
2022-08-11T01:47:07.628Z,21.29
2022-08-11T01:50:08.057Z,21.26
2022-08-11T01:52:49.194Z,21.21
2022-08-11T01:55:29.363Z,21.16
2022-08-11T01:58:22.962Z,21.15
2022-08-11T02:01:28.758Z,21.08
2022-08-11T02:04:18.724Z,21.04
2022-08-11T02:06:57.418Z,21.04
2022-08-11T02:09:49.799Z,21.00
2022-08-11T02:12:52.127Z,20.95
2022-08-11T02:15:34.519Z,20.91
2022-08-11T02:18:52.793Z,20.89
2022-08-11T02:21:57.141Z,20.83
2022-08-11T02:24:51.854Z,20.80
2022-08-11T02:27:25.720Z,20.75
2022-08-11T02:30:10.230Z,20.76
2022-08-11T02:33:01.611Z,20.71
2022-08-11T02:35:42.870Z,20.69
2022-08-11T02:38:33.937Z,20.65
2022-08-11T02:41:39.786Z,20.64
2022-08-11T02:44:28.320Z,20.60
2022-08-11T02:47:31.058Z,20.60
2022-08-11T02:50:21.275Z,20.60
2022-08-11T02:53:02.144Z,20.56
2022-08-11T02:55:58.345Z,20.56
2022-08-11T02:58:36.756Z,20.54
2022-08-11T03:01:12.736Z,20.51
2022-08-11T03:03:51.376Z,20.47
2022-08-11T03:06:30.141Z,20.43
2022-08-11T03:09:06.592Z,20.41
2022-08-11T03:11:57.707Z,20.36
2022-08-11T03:15:11.166Z,20.29
2022-08-11T03:18:03.021Z,20.24
2022-08-11T03:20:43.819Z,20.20
2022-08-11T03:23:19.757Z,20.16
2022-08-11T03:26:01.695Z,20.16
2022-08-11T03:28:51.688Z,20.12
2022-08-11T03:31:33.279Z,20.12
2022-08-11T03:34:39.007Z,20.10
2022-08-11T03:37:34.361Z,20.08
2022-08-11T03:40:03.624Z,20.05
2022-08-11T03:42:42.151Z,19.99
2022-08-11T03:45:17.761Z,19.92
2022-08-11T03:48:05.698Z,19.87
2022-08-11T03:50:55.328Z,19.86
2022-08-11T03:53:50.075Z,19.86
2022-08-11T03:56:51.685Z,19.87
2022-08-11T03:59:21.015Z,19.85
2022-08-11T04:02:14.877Z,19.80
2022-08-11T04:05:07.252Z,19.76
2022-08-11T04:08:01.468Z,19.74
2022-08-11T04:11:05.634Z,19.72
2022-08-11T04:14:27.957Z,19.67
2022-08-11T04:17:25.019Z,19.63
2022-08-11T04:19:56.913Z,19.61
2022-08-11T04:23:03.481Z,19.58
2022-08-11T04:25:30.917Z,19.59
2022-08-11T04:28:29.236Z,19.53
2022-08-11T04:31:05.928Z,19.51
2022-08-11T04:33:36.515Z,19.52
2022-08-11T04:36:15.070Z,19.52
2022-08-11T04:39:08.157Z,19.55
2022-08-11T04:42:15.471Z,19.59
2022-08-11T04:45:11.920Z,19.64
2022-08-11T04:48:40.863Z,19.67
2022-08-11T04:51:57.649Z,19.70
2022-08-11T04:54:58.155Z,19.72
2022-08-11T04:58:09.784Z,19.73
2022-08-11T05:01:12.381Z,19.76
2022-08-11T05:03:51.211Z,19.78
2022-08-11T05:06:20.620Z,19.83
2022-08-11T05:09:23.578Z,19.85
2022-08-11T05:12:06.318Z,19.91
2022-08-11T05:14:57.517Z,19.94
2022-08-11T05:17:53.116Z,20.00
2022-08-11T05:20:41.828Z,20.08
2022-08-11T05:23:28.732Z,20.13
2022-08-11T05:26:47.178Z,20.23
2022-08-11T05:29:42.815Z,20.31
2022-08-11T05:32:31.664Z,20.38
2022-08-11T05:35:03.605Z,20.43
2022-08-11T05:37:29.973Z,20.51
2022-08-11T05:40:24.243Z,20.57
2022-08-11T05:43:18.632Z,20.65
2022-08-11T05:46:15.652Z,20.75
2022-08-11T05:49:01.536Z,20.80
2022-08-11T05:52:05.768Z,20.86
2022-08-11T05:54:59.841Z,20.93
2022-08-11T05:57:48.782Z,21.00
2022-08-11T06:00:19.117Z,21.09
2022-08-11T06:02:51.992Z,21.14
2022-08-11T06:05:21.065Z,21.20
2022-08-11T06:07:50.165Z,21.27
2022-08-11T06:10:35.396Z,21.30
2022-08-11T06:13:07.373Z,21.38
2022-08-11T06:15:43.526Z,21.42
2022-08-11T06:18:12.488Z,21.49
2022-08-11T06:20:50.154Z,21.53
2022-08-11T06:23:23.638Z,21.59
2022-08-11T06:25:56.484Z,21.66
2022-08-11T06:28:35.699Z,21.74
2022-08-11T06:31:11.554Z,21.80
2022-08-11T06:33:55.322Z,21.86
2022-08-11T06:36:35.698Z,21.94
2022-08-11T06:39:18.576Z,22.02
2022-08-11T06:42:02.658Z,22.11
2022-08-11T06:44:58.689Z,22.22
2022-08-11T06:47:25.494Z,22.32
2022-08-11T06:50:13.879Z,22.43
2022-08-11T06:52:42.269Z,22.51
2022-08-11T06:55:55.747Z,22.63
2022-08-11T06:58:17.094Z,22.73
2022-08-11T07:00:47.733Z,22.82
2022-08-11T07:03:19.624Z,22.93
2022-08-11T07:08:50.283Z,23.14
2022-08-11T07:11:41.342Z,23.25
2022-08-11T07:14:27.716Z,23.32
2022-08-11T07:16:55.724Z,23.47
2022-08-11T07:19:44.507Z,23.56
2022-08-11T07:22:30.506Z,23.69
2022-08-11T07:25:25.334Z,23.82
2022-08-11T07:28:20.642Z,23.90
2022-08-11T07:30:54.453Z,24.06
2022-08-11T07:34:08.138Z,24.20
2022-08-11T07:36:17.407Z,24.34
2022-08-11T07:38:50.792Z,24.45
2022-08-11T07:41:20.450Z,24.59
2022-08-11T07:43:52.543Z,24.69
2022-08-11T07:46:38.292Z,24.73
2022-08-11T07:49:26.266Z,24.85
2022-08-11T07:52:12.583Z,24.98
2022-08-11T07:54:41.559Z,25.09
2022-08-11T07:58:14.168Z,25.17
2022-08-11T08:00:34.314Z,25.30
2022-08-11T08:03:22.473Z,25.39
2022-08-11T08:06:28.427Z,25.42
2022-08-11T08:09:15.123Z,25.52
2022-08-11T08:12:02.301Z,25.62
2022-08-11T08:14:47.992Z,25.75
2022-08-11T08:17:33.262Z,25.86
2022-08-11T08:20:00.581Z,26.00
2022-08-11T08:22:48.326Z,26.14
2022-08-11T08:25:15.237Z,26.26
2022-08-11T08:27:43.552Z,26.38
2022-08-11T08:30:32.825Z,26.48
2022-08-11T08:33:01.063Z,26.61
2022-08-11T08:35:32.936Z,26.73
2022-08-11T08:38:00.783Z,26.85
2022-08-11T08:40:27.620Z,26.94
2022-08-11T08:42:58.395Z,27.02
2022-08-11T08:45:28.215Z,27.17
2022-08-11T08:48:04.842Z,27.25
2022-08-11T08:50:55.601Z,27.40
2022-08-11T08:53:29.596Z,27.56
2022-08-11T08:55:58.320Z,27.65
2022-08-11T08:58:26.119Z,27.77
2022-08-11T09:00:56.622Z,27.87
2022-08-11T09:03:40.926Z,27.95
2022-08-11T09:06:10.774Z,28.03
2022-08-11T09:08:37.755Z,28.22
2022-08-11T09:11:24.089Z,28.34
2022-08-11T09:14:05.044Z,28.48
2022-08-11T09:16:33.786Z,28.58
2022-08-11T09:19:00.976Z,28.68
2022-08-11T09:21:49.306Z,28.79
2022-08-11T09:24:32.939Z,28.87
2022-08-11T09:27:07.661Z,28.94
2022-08-11T09:29:35.774Z,28.99
2022-08-11T09:32:02.837Z,29.16
2022-08-11T09:34:29.898Z,29.31
2022-08-11T09:37:28.739Z,29.50
2022-08-11T09:40:27.407Z,29.64
2022-08-11T09:43:18.383Z,29.85
2022-08-11T09:45:51.321Z,30.03
2022-08-11T09:48:23.737Z,30.02
2022-08-11T09:50:52.939Z,30.13
2022-08-11T09:53:36.792Z,30.25
2022-08-11T09:56:40.519Z,30.25
2022-08-11T09:59:08.181Z,30.33
2022-08-11T10:01:42.309Z,30.49
2022-08-11T10:04:20.683Z,30.73
2022-08-11T10:07:05.424Z,30.97
2022-08-11T10:09:46.614Z,31.15
2022-08-11T10:12:26.849Z,31.25
2022-08-11T10:15:15.853Z,31.35
2022-08-11T10:18:06.893Z,31.45
2022-08-11T10:20:36.920Z,31.41
2022-08-11T10:23:22.913Z,31.40
2022-08-11T10:26:09.561Z,31.54
2022-08-11T10:28:55.848Z,31.66
2022-08-11T10:31:57.717Z,31.75
2022-08-11T10:34:29.956Z,31.83
2022-08-11T10:37:02.959Z,31.99
2022-08-11T10:39:29.823Z,32.09
2022-08-11T10:42:30.065Z,32.22
2022-08-11T10:45:27.040Z,32.26
2022-08-11T10:47:55.977Z,32.38
2022-08-11T10:50:42.696Z,32.49
2022-08-11T10:53:28.785Z,32.48
2022-08-11T10:56:15.165Z,32.40
2022-08-11T10:58:49.196Z,32.60
2022-08-11T11:01:24.332Z,32.66
2022-08-11T11:03:54.645Z,32.72
2022-08-11T11:06:52.053Z,32.74
2022-08-11T11:09:32.531Z,32.96
2022-08-11T11:12:25.774Z,32.99
2022-08-11T11:15:16.151Z,33.08
2022-08-11T11:17:56.858Z,33.22
2022-08-11T11:20:36.957Z,33.28
2022-08-11T11:23:20.055Z,33.34
2022-08-11T11:26:16.795Z,33.50
2022-08-11T11:29:25.151Z,33.68
2022-08-11T11:31:59.158Z,33.67
2022-08-11T11:34:48.017Z,33.74
2022-08-11T11:37:22.787Z,33.94
2022-08-11T11:39:50.153Z,34.15
2022-08-11T11:42:18.361Z,34.24
2022-08-11T11:44:46.982Z,34.26
2022-08-11T11:47:15.443Z,34.23
2022-08-11T11:49:44.268Z,34.21
2022-08-11T11:52:19.718Z,34.13
2022-08-11T11:54:50.534Z,34.37
2022-08-11T11:57:37.489Z,34.45
2022-08-11T12:00:25.345Z,34.54
2022-08-11T12:03:03.169Z,34.62
2022-08-11T12:05:33.575Z,34.73
2022-08-11T12:08:17.892Z,34.91
2022-08-11T12:11:12.766Z,34.99
2022-08-11T12:13:45.120Z,35.08
2022-08-11T12:16:34.294Z,35.22
2022-08-11T12:19:01.974Z,35.29
2022-08-11T12:21:33.192Z,35.27
2022-08-11T12:24:20.936Z,35.38
2022-08-11T12:27:15.128Z,35.38
2022-08-11T12:29:36.465Z,35.36
2022-08-11T12:32:11.634Z,35.31
2022-08-11T12:34:43.604Z,35.47
2022-08-11T12:37:13.747Z,35.68
2022-08-11T12:40:15.601Z,35.59
2022-08-11T12:43:37.363Z,35.61
2022-08-11T12:46:34.600Z,35.66
2022-08-11T12:49:36.746Z,35.72
2022-08-11T12:52:13.376Z,35.97
2022-08-11T12:55:02.733Z,36.10
2022-08-11T12:57:50.266Z,36.24
2022-08-11T13:00:37.468Z,36.36
2022-08-11T13:03:25.800Z,36.35
2022-08-11T13:05:55.453Z,36.54
2022-08-11T13:08:27.818Z,36.65
2022-08-11T13:11:16.729Z,36.68
2022-08-11T13:13:55.458Z,36.78
2022-08-11T13:16:28.004Z,36.78
2022-08-11T13:18:56.259Z,36.85
2022-08-11T13:21:26.319Z,36.95
2022-08-11T13:23:59.762Z,37.03
2022-08-11T13:26:47.487Z,37.09
2022-08-11T13:29:26.365Z,37.05
2022-08-11T13:32:00.798Z,37.01
2022-08-11T13:34:31.218Z,37.11
2022-08-11T13:37:00.948Z,36.99
2022-08-11T13:39:31.336Z,37.04
2022-08-11T13:42:00.195Z,37.09
2022-08-11T13:44:29.842Z,37.15
2022-08-11T13:47:01.368Z,37.11
2022-08-11T13:49:29.752Z,37.14
2022-08-11T13:51:57.213Z,36.97
2022-08-11T13:54:30.110Z,36.93
2022-08-11T13:57:01.231Z,36.96
2022-08-11T13:59:30.008Z,37.10
2022-08-11T14:02:21.416Z,37.08
2022-08-11T14:04:56.836Z,37.20
2022-08-11T14:07:34.472Z,37.11
2022-08-11T14:10:02.520Z,37.27
2022-08-11T14:12:52.845Z,37.34
2022-08-11T14:15:25.136Z,37.41
2022-08-11T14:18:03.166Z,37.48
2022-08-11T14:20:54.210Z,37.62
2022-08-11T14:23:37.859Z,37.58
2022-08-11T14:26:24.136Z,37.57
2022-08-11T14:29:13.161Z,37.60
2022-08-11T14:31:55.624Z,37.65
2022-08-11T14:34:24.563Z,37.78
2022-08-11T14:37:05.530Z,37.80
2022-08-11T14:39:36.021Z,37.77
2022-08-11T14:42:24.078Z,37.82
2022-08-11T14:45:03.334Z,37.66
2022-08-11T14:47:33.733Z,37.71
2022-08-11T14:50:12.338Z,37.69
2022-08-11T14:52:52.195Z,37.80
2022-08-11T14:55:40.483Z,37.95
2022-08-11T14:58:10.820Z,37.88
2022-08-11T15:00:39.001Z,37.80
2022-08-11T15:03:12.851Z,37.92
2022-08-11T15:05:57.188Z,37.92
2022-08-11T15:08:47.383Z,37.87
2022-08-11T15:11:34.576Z,37.86
2022-08-11T15:14:03.169Z,37.76
2022-08-11T15:16:48.880Z,37.55
2022-08-11T15:19:16.454Z,37.08
2022-08-11T15:22:01.443Z,36.94
2022-08-11T15:24:30.925Z,36.72
2022-08-11T15:27:19.180Z,36.71
2022-08-11T15:30:06.166Z,36.44
2022-08-11T15:32:54.183Z,36.18
2022-08-11T15:35:40.834Z,36.05
2022-08-11T15:38:12.014Z,35.85
2022-08-11T15:41:00.347Z,35.91
2022-08-11T15:43:51.978Z,35.79
2022-08-11T15:46:29.536Z,35.69
2022-08-11T15:49:04.038Z,35.59
2022-08-11T15:51:40.968Z,35.50
2022-08-11T15:54:15.711Z,35.38
2022-08-11T15:56:44.404Z,35.30
2022-08-11T15:59:42.197Z,35.23
2022-08-11T16:02:16.278Z,35.16
2022-08-11T16:04:45.509Z,34.97
2022-08-11T16:07:15.031Z,34.85
2022-08-11T16:10:01.865Z,34.77
2022-08-11T16:12:32.176Z,34.70
2022-08-11T16:15:22.825Z,34.72
2022-08-11T16:17:53.893Z,34.76
2022-08-11T16:20:24.367Z,34.89
2022-08-11T16:23:00.312Z,34.88
2022-08-11T16:27:02.157Z,35.02
2022-08-11T16:28:20.598Z,35.10
2022-08-11T16:30:48.118Z,35.09
2022-08-11T16:33:50.554Z,35.08
2022-08-11T16:36:23.033Z,34.99
2022-08-11T16:38:49.945Z,34.87
2022-08-11T16:41:41.485Z,34.77
2022-08-11T16:44:37.262Z,34.65
2022-08-11T16:47:07.106Z,34.60
2022-08-11T16:49:37.215Z,34.50
2022-08-11T16:52:07.976Z,34.39
2022-08-11T16:54:35.286Z,34.24
2022-08-11T16:57:27.428Z,34.18
2022-08-11T16:59:58.081Z,34.04
2022-08-11T17:02:48.833Z,33.87
2022-08-11T17:05:54.135Z,33.78
2022-08-11T17:08:57.132Z,33.64
2022-08-11T17:11:46.034Z,33.53
2022-08-11T17:14:36.180Z,33.42
2022-08-11T17:17:12.542Z,33.30
2022-08-11T17:20:38.578Z,33.22
2022-08-11T17:22:51.008Z,33.20
2022-08-11T17:25:19.348Z,33.09
2022-08-11T17:27:48.530Z,33.04
2022-08-11T17:30:15.969Z,32.92
2022-08-11T17:33:06.303Z,32.84
2022-08-11T17:35:41.579Z,32.77
2022-08-11T17:38:15.099Z,32.69
2022-08-11T17:41:10.777Z,32.64
2022-08-11T17:44:09.397Z,32.59
2022-08-11T17:46:55.796Z,32.55
2022-08-11T17:49:23.534Z,32.49
2022-08-11T17:52:09.897Z,32.41
2022-08-11T17:54:56.664Z,32.37
2022-08-11T17:57:47.442Z,32.29
2022-08-11T18:00:15.430Z,32.20
2022-08-11T18:03:03.390Z,32.14
2022-08-11T18:05:33.992Z,32.01
2022-08-11T18:08:24.380Z,31.90
2022-08-11T18:11:11.261Z,31.85
2022-08-11T18:14:02.982Z,31.74
2022-08-11T18:16:48.915Z,31.71
2022-08-11T18:19:34.297Z,31.61
2022-08-11T18:22:26.603Z,31.51
2022-08-11T18:25:20.255Z,31.41
2022-08-11T18:28:07.138Z,31.32
2022-08-11T18:31:03.550Z,31.22
2022-08-11T18:34:07.372Z,31.13
2022-08-11T18:37:20.567Z,30.98
2022-08-11T18:40:14.838Z,30.85
2022-08-11T18:43:03.000Z,30.77
2022-08-11T18:45:51.298Z,30.71
2022-08-11T18:48:55.987Z,30.60
2022-08-11T18:51:42.748Z,30.49
2022-08-11T18:54:30.155Z,30.40
2022-08-11T18:57:19.800Z,30.30
2022-08-11T19:00:06.062Z,30.20
2022-08-11T19:02:54.566Z,29.97
2022-08-11T19:06:36.108Z,29.88
2022-08-11T19:08:49.797Z,29.76
2022-08-11T19:11:42.535Z,29.66
2022-08-11T19:14:30.441Z,29.53
2022-08-11T19:17:44.785Z,29.43
2022-08-11T19:20:29.640Z,29.30
2022-08-11T19:23:15.700Z,29.19
2022-08-11T19:26:03.692Z,29.07
2022-08-11T19:28:50.334Z,28.92
2022-08-11T19:31:38.823Z,28.83
2022-08-11T19:34:35.421Z,28.72
2022-08-11T19:37:25.314Z,28.60
2022-08-11T19:40:18.849Z,28.52
2022-08-11T19:43:14.894Z,28.44
2022-08-11T19:46:10.918Z,28.31
2022-08-11T19:48:56.835Z,28.21
2022-08-11T19:51:42.709Z,28.14
2022-08-11T19:54:29.322Z,28.10
2022-08-11T19:57:15.460Z,28.02
2022-08-11T20:00:01.250Z,27.95
2022-08-11T20:02:47.299Z,27.85
2022-08-11T20:05:32.519Z,27.81
2022-08-11T20:08:26.373Z,27.70
2022-08-11T20:11:13.209Z,27.66
2022-08-11T20:14:01.137Z,27.62
2022-08-11T20:16:50.520Z,27.55
2022-08-11T20:19:56.100Z,27.48
2022-08-11T20:22:49.280Z,27.41
2022-08-11T20:25:36.563Z,27.34
2022-08-11T20:28:25.085Z,27.22
2022-08-11T20:31:11.980Z,27.20
2022-08-11T20:33:59.095Z,27.15
2022-08-11T20:36:48.720Z,27.11
2022-08-11T20:39:41.393Z,27.05
2022-08-11T20:42:30.451Z,26.93
2022-08-11T20:45:20.219Z,26.89
2022-08-11T20:48:14.620Z,26.82
2022-08-11T20:51:05.950Z,26.76
2022-08-11T20:53:56.823Z,26.70
2022-08-11T20:56:44.094Z,26.64
2022-08-11T20:59:49.418Z,26.61
2022-08-11T21:02:40.800Z,26.53
2022-08-11T21:06:10.413Z,26.46
2022-08-11T21:08:36.873Z,26.39
2022-08-11T21:11:27.872Z,26.34
2022-08-11T21:14:13.955Z,26.28
2022-08-11T21:17:04.569Z,26.21
2022-08-11T21:20:16.985Z,26.17
2022-08-11T21:23:10.572Z,26.10
2022-08-11T21:26:09.270Z,26.06
2022-08-11T21:28:57.675Z,26.04
2022-08-11T21:31:44.678Z,26.03
2022-08-11T21:34:37.243Z,25.99
2022-08-11T21:37:23.604Z,25.93
2022-08-11T21:40:16.326Z,25.87
2022-08-11T21:43:04.219Z,25.82
2022-08-11T21:45:52.764Z,25.75
2022-08-11T21:48:42.202Z,25.67
2022-08-11T21:51:27.368Z,25.66
2022-08-11T21:54:13.230Z,25.62
2022-08-11T21:56:59.232Z,25.57
2022-08-11T22:00:15.042Z,25.53
2022-08-11T22:03:06.980Z,25.49
2022-08-11T22:05:53.345Z,25.45
2022-08-11T22:08:38.686Z,25.37
2022-08-11T22:11:32.120Z,25.31
2022-08-11T22:14:19.096Z,25.23
2022-08-11T22:17:04.433Z,25.15
2022-08-11T22:19:50.687Z,25.09
2022-08-11T22:22:52.034Z,25.02
2022-08-11T22:25:51.240Z,24.92
2022-08-11T22:28:37.735Z,24.86
2022-08-11T22:31:23.352Z,24.80
2022-08-11T22:34:08.668Z,24.75
2022-08-11T22:36:54.576Z,24.68
2022-08-11T22:39:41.569Z,24.64
2022-08-11T22:42:33.451Z,24.59
2022-08-11T22:45:19.866Z,24.53
2022-08-11T22:48:06.774Z,24.45
2022-08-11T22:50:55.386Z,24.39
2022-08-11T22:53:57.943Z,24.31
2022-08-11T22:56:48.491Z,24.25
2022-08-11T22:59:35.894Z,24.21
2022-08-11T23:02:22.993Z,24.17
2022-08-11T23:05:09.323Z,24.11
2022-08-11T23:07:56.161Z,24.07
2022-08-11T23:10:42.729Z,24.00
2022-08-11T23:13:29.022Z,23.93
2022-08-11T23:16:14.434Z,23.79
2022-08-11T23:19:00.863Z,23.79
2022-08-11T23:21:47.197Z,23.72
2022-08-11T23:24:32.979Z,23.65
2022-08-11T23:27:18.288Z,23.60
2022-08-11T23:30:04.285Z,23.57
2022-08-11T23:32:52.311Z,23.54
2022-08-11T23:35:52.684Z,23.52
2022-08-11T23:38:44.256Z,23.45
2022-08-11T23:41:32.596Z,23.40
2022-08-11T23:44:23.050Z,23.34
2022-08-11T23:47:10.625Z,23.28
2022-08-11T23:49:59.103Z,23.25
2022-08-11T23:52:46.419Z,23.16
2022-08-11T23:55:34.853Z,23.15
2022-08-11T23:58:20.361Z,23.11
